createdAt,value
2023-05-03T00:02:12.244Z,56.62
2023-05-03T00:04:46.407Z,56.73
2023-05-03T00:07:19.603Z,54.35
2023-05-03T00:09:52.359Z,56.66
2023-05-03T00:12:26.812Z,54.79
2023-05-03T00:14:59.612Z,54.42
2023-05-03T00:17:32.467Z,54.86
2023-05-03T00:20:05.734Z,55.23
2023-05-03T00:22:38.760Z,54.62
2023-05-03T00:25:11.473Z,54.38
2023-05-03T00:27:45.591Z,56.10
2023-05-03T00:30:19.613Z,54.20
2023-05-03T00:32:52.817Z,54.36
2023-05-03T00:35:25.605Z,55.94
2023-05-03T00:37:58.278Z,56.41
2023-05-03T00:40:31.175Z,53.54
2023-05-03T00:43:05.256Z,55.16
2023-05-03T00:45:38.361Z,60.10
2023-05-03T00:48:11.744Z,54.39
2023-05-03T00:50:44.801Z,54.58
2023-05-03T00:53:17.848Z,56.83
2023-05-03T00:55:53.015Z,54.50
2023-05-03T00:58:27.088Z,55.84
2023-05-03T01:01:00.131Z,57.92
2023-05-03T01:03:33.271Z,56.04
2023-05-03T01:06:09.756Z,61.60
2023-05-03T01:08:45.559Z,58.86
2023-05-03T01:11:22.984Z,61.90
2023-05-03T01:13:58.412Z,61.20
2023-05-03T01:16:36.405Z,60.23
2023-05-03T01:19:15.262Z,58.33
2023-05-03T01:21:52.365Z,57.92
2023-05-03T01:24:27.449Z,59.42
2023-05-03T01:27:02.275Z,57.53
2023-05-03T01:29:35.474Z,57.85
2023-05-03T01:32:10.364Z,58.81
2023-05-03T01:34:46.929Z,62.19
2023-05-03T01:37:19.679Z,58.54
2023-05-03T01:39:55.282Z,60.34
2023-05-03T01:42:30.812Z,60.91
2023-05-03T01:45:05.276Z,59.98
2023-05-03T01:47:38.289Z,59.18
2023-05-03T01:50:11.653Z,62.49
2023-05-03T01:52:45.307Z,63.01
2023-05-03T01:55:18.152Z,58.95
2023-05-03T01:57:52.244Z,59.22
2023-05-03T02:00:25.021Z,62.23
2023-05-03T02:02:58.481Z,63.94
2023-05-03T02:05:31.471Z,63.58
2023-05-03T02:08:04.272Z,59.67
2023-05-03T02:10:37.031Z,62.51
2023-05-03T02:13:11.077Z,60.43
2023-05-03T02:15:44.460Z,62.64
2023-05-03T02:18:18.562Z,62.49
2023-05-03T02:20:51.422Z,60.48
2023-05-03T02:23:24.212Z,60.69
2023-05-03T02:25:56.988Z,63.37
2023-05-03T02:28:32.088Z,60.14
2023-05-03T02:31:06.345Z,60.67
2023-05-03T02:33:39.536Z,63.19
2023-05-03T02:36:13.207Z,63.15
2023-05-03T02:38:46.067Z,64.17
2023-05-03T02:41:19.125Z,61.96
2023-05-03T02:43:53.511Z,61.78
2023-05-03T02:46:26.568Z,62.85
2023-05-03T02:48:59.660Z,67.30
2023-05-03T02:51:33.124Z,63.28
2023-05-03T02:54:05.899Z,63.01
2023-05-03T02:56:38.721Z,62.68
2023-05-03T02:59:12.988Z,63.71
2023-05-03T03:01:47.070Z,61.41
2023-05-03T03:04:19.882Z,62.04
2023-05-03T03:06:53.573Z,63.72
2023-05-03T03:09:26.610Z,66.70
2023-05-03T03:11:59.751Z,63.19
2023-05-03T03:14:34.178Z,63.08
2023-05-03T03:17:09.942Z,65.55
2023-05-03T03:19:42.681Z,61.80
2023-05-03T03:22:17.812Z,67.32
2023-05-03T03:24:50.974Z,62.15
2023-05-03T03:27:24.183Z,68.44
2023-05-03T03:29:58.223Z,63.64
2023-05-03T03:32:31.392Z,65.36
2023-05-03T03:35:04.564Z,65.01
2023-05-03T03:37:37.450Z,64.54
2023-05-03T03:40:11.499Z,65.91
2023-05-03T03:42:44.509Z,64.68
2023-05-03T03:45:18.982Z,64.54
2023-05-03T03:47:53.426Z,66.49
2023-05-03T03:50:26.605Z,62.62
2023-05-03T03:52:59.378Z,61.83
2023-05-03T03:55:32.360Z,66.31
2023-05-03T03:58:05.041Z,62.49
2023-05-03T04:00:39.443Z,63.21
2023-05-03T04:03:12.255Z,64.37
2023-05-03T04:05:45.966Z,67.62
2023-05-03T04:08:18.700Z,71.56
2023-05-03T04:10:51.795Z,71.49
2023-05-03T04:13:24.598Z,72.32
2023-05-03T04:15:58.856Z,76.00
2023-05-03T04:18:31.966Z,77.80
2023-05-03T04:21:04.974Z,81.09
2023-05-03T04:23:38.587Z,84.63
2023-05-03T04:26:23.567Z,87.88
2023-05-03T04:29:03.949Z,90.65
2023-05-03T04:31:38.064Z,93.48
2023-05-03T04:34:15.005Z,94.37
2023-05-03T04:36:49.126Z,93.38
2023-05-03T04:39:22.145Z,95.29
2023-05-03T04:41:55.209Z,94.81
2023-05-03T04:44:27.945Z,95.95
2023-05-03T04:47:02.821Z,92.67
2023-05-03T04:49:35.758Z,92.16
2023-05-03T04:52:10.316Z,94.96
2023-05-03T04:54:43.085Z,92.19
2023-05-03T04:57:16.132Z,94.56
2023-05-03T04:59:50.034Z,96.47
2023-05-03T05:02:24.814Z,96.72
2023-05-03T05:04:57.642Z,95.67
2023-05-03T05:07:30.718Z,100.00
2023-05-03T05:10:03.949Z,99.00
2023-05-03T05:12:37.070Z,97.09
2023-05-03T05:15:10.280Z,99.43
2023-05-03T05:17:45.012Z,96.86
2023-05-03T05:20:18.974Z,98.30
2023-05-03T05:22:51.990Z,93.63
2023-05-03T05:25:24.847Z,95.19
2023-05-03T05:27:57.929Z,95.79
2023-05-03T05:30:31.529Z,92.90
2023-05-03T05:33:06.283Z,94.79
2023-05-03T05:35:39.480Z,96.26
2023-05-03T05:38:12.455Z,97.30
2023-05-03T05:40:45.405Z,96.08
2023-05-03T05:43:18.145Z,100.00
2023-05-03T05:45:51.242Z,95.13
2023-05-03T05:48:25.488Z,96.97
2023-05-03T05:50:58.235Z,93.98
2023-05-03T05:53:31.219Z,96.76
2023-05-03T05:56:04.037Z,100.00
2023-05-03T05:58:38.255Z,100.00
2023-05-03T06:01:11.208Z,99.01
2023-05-03T06:03:45.666Z,96.04
2023-05-03T06:06:18.596Z,96.36
2023-05-03T06:08:51.863Z,91.52
2023-05-03T06:11:24.740Z,93.43
2023-05-03T06:13:57.806Z,93.78
2023-05-03T06:16:31.048Z,93.86
2023-05-03T06:19:05.652Z,92.18
2023-05-03T06:21:38.869Z,89.17
2023-05-03T06:24:11.552Z,89.97
2023-05-03T06:26:44.408Z,90.51
2023-05-03T06:29:17.099Z,88.36
2023-05-03T06:31:50.258Z,86.65
2023-05-03T06:34:24.678Z,86.94
2023-05-03T06:36:57.429Z,84.99
2023-05-03T06:39:30.157Z,86.39
2023-05-03T06:42:03.201Z,86.47
2023-05-03T06:44:36.257Z,85.84
2023-05-03T06:47:09.255Z,86.51
2023-05-03T06:49:43.494Z,87.53
2023-05-03T06:52:16.398Z,85.93
2023-05-03T06:54:49.372Z,84.85
2023-05-03T06:57:22.888Z,82.38
2023-05-03T06:59:55.602Z,83.02
2023-05-03T07:02:29.160Z,85.20
2023-05-03T07:05:03.360Z,85.16
2023-05-03T07:07:36.568Z,84.12
2023-05-03T07:10:09.718Z,83.21
2023-05-03T07:12:42.648Z,81.02
2023-05-03T07:15:15.646Z,79.19
2023-05-03T07:17:48.561Z,80.83
2023-05-03T07:20:22.840Z,78.71
2023-05-03T07:22:55.853Z,78.21
2023-05-03T07:25:28.684Z,76.36
2023-05-03T07:28:01.591Z,76.63
2023-05-03T07:30:34.299Z,77.28
2023-05-03T07:33:07.237Z,77.06
2023-05-03T07:35:41.544Z,79.95
2023-05-03T07:38:14.300Z,78.40
2023-05-03T07:40:47.658Z,75.20
2023-05-03T07:43:23.670Z,73.77
2023-05-03T07:45:56.531Z,73.30
2023-05-03T07:48:29.304Z,75.89
2023-05-03T07:51:04.641Z,73.47
2023-05-03T07:53:39.980Z,74.23
2023-05-03T07:56:13.248Z,74.20
2023-05-03T07:58:48.639Z,76.19
2023-05-03T08:01:23.953Z,73.84
2023-05-03T08:03:58.722Z,72.84
2023-05-03T08:06:35.505Z,73.08
2023-05-03T08:09:09.022Z,73.66
2023-05-03T08:11:44.144Z,72.75
2023-05-03T08:14:17.397Z,73.38
2023-05-03T08:16:50.415Z,72.87
2023-05-03T08:19:23.303Z,73.79
2023-05-03T08:21:58.360Z,72.89
2023-05-03T08:24:31.128Z,74.85
2023-05-03T08:27:03.785Z,72.38
2023-05-03T08:29:37.663Z,74.17
2023-05-03T08:32:10.857Z,72.92
2023-05-03T08:34:44.304Z,71.97
2023-05-03T08:37:18.939Z,70.70
2023-05-03T08:39:52.256Z,69.96
2023-05-03T08:42:25.871Z,70.34
2023-05-03T08:44:58.789Z,70.50
2023-05-03T08:47:35.809Z,66.84
2023-05-03T08:50:09.957Z,68.54
2023-05-03T08:52:44.536Z,68.25
2023-05-03T08:55:17.622Z,66.50
2023-05-03T08:57:50.411Z,67.06
2023-05-03T09:00:29.068Z,65.25
2023-05-03T09:03:01.898Z,68.17
2023-05-03T09:05:38.745Z,66.55
2023-05-03T09:08:14.634Z,65.88
2023-05-03T09:10:47.326Z,66.58
2023-05-03T09:13:20.360Z,66.27
2023-05-03T09:15:57.154Z,66.95
2023-05-03T09:18:30.688Z,66.36
2023-05-03T09:21:03.642Z,65.61
2023-05-03T09:23:37.906Z,67.91
2023-05-03T09:26:13.347Z,66.26
2023-05-03T09:28:46.181Z,63.10
2023-05-03T09:31:19.039Z,62.53
2023-05-03T09:33:53.514Z,66.69
2023-05-03T09:36:27.680Z,61.17
2023-05-03T09:39:17.002Z,63.66
2023-05-03T09:41:50.272Z,64.60
2023-05-03T09:44:41.350Z,63.62
2023-05-03T09:47:14.127Z,65.07
2023-05-03T09:49:47.210Z,62.17
2023-05-03T09:52:23.292Z,63.91
2023-05-03T09:54:57.566Z,63.36
2023-05-03T09:57:30.817Z,62.05
2023-05-03T10:00:04.782Z,61.97
2023-05-03T10:02:38.056Z,61.10
2023-05-03T10:05:12.745Z,64.41
2023-05-03T10:07:45.886Z,62.38
2023-05-03T10:10:21.260Z,63.85
2023-05-03T10:12:54.646Z,64.39
2023-05-03T10:15:29.138Z,66.22
2023-05-03T10:18:03.583Z,68.51
2023-05-03T10:20:41.354Z,69.87
2023-05-03T10:23:15.120Z,72.97
2023-05-03T10:26:22.588Z,71.75
2023-05-03T10:28:57.356Z,72.59
2023-05-03T10:31:45.159Z,71.37
2023-05-03T10:34:21.260Z,70.37
2023-05-03T10:36:54.558Z,70.34
2023-05-03T10:39:28.653Z,71.55
2023-05-03T10:42:03.582Z,70.63
2023-05-03T10:44:40.269Z,70.74
2023-05-03T10:47:14.166Z,73.28
2023-05-03T10:49:47.457Z,74.22
2023-05-03T10:52:50.047Z,75.08
2023-05-03T10:55:24.794Z,75.67
2023-05-03T10:57:59.360Z,77.67
2023-05-03T11:00:37.112Z,75.71
2023-05-03T11:03:33.721Z,76.21
2023-05-03T11:06:06.999Z,76.40
2023-05-03T11:08:40.332Z,74.81
2023-05-03T11:11:13.306Z,75.17
2023-05-03T11:13:46.314Z,78.56
2023-05-03T11:16:21.438Z,80.27
2023-05-03T11:18:54.995Z,76.25
2023-05-03T11:21:27.926Z,77.53
2023-05-03T11:24:10.977Z,78.02
2023-05-03T11:26:44.118Z,76.06
2023-05-03T11:29:17.708Z,77.22
2023-05-03T11:31:52.888Z,75.64
2023-05-03T11:34:25.759Z,75.62
2023-05-03T11:36:59.805Z,77.01
2023-05-03T11:39:33.469Z,77.72
2023-05-03T11:42:07.171Z,77.59
2023-05-03T11:44:40.000Z,77.30
2023-05-03T11:47:14.347Z,76.31
2023-05-03T11:49:52.498Z,78.07
2023-05-03T11:52:28.548Z,75.82
2023-05-03T11:55:01.576Z,74.77
2023-05-03T11:57:34.569Z,71.37
2023-05-03T12:00:17.438Z,73.40
2023-05-03T12:02:51.961Z,71.43
2023-05-03T12:05:25.020Z,72.23
2023-05-03T12:07:58.715Z,72.10
2023-05-03T12:10:33.407Z,70.10
2023-05-03T12:13:08.975Z,71.68
2023-05-03T12:15:43.793Z,69.38
2023-05-03T12:21:29.992Z,70.42
2023-05-03T12:23:51.777Z,69.38
2023-05-03T12:26:25.789Z,67.55
2023-05-03T12:29:00.470Z,67.30
2023-05-03T12:31:39.270Z,67.18
2023-05-03T12:34:32.723Z,64.91
2023-05-03T12:37:11.024Z,65.33
2023-05-03T12:39:45.971Z,66.29
2023-05-03T12:42:24.053Z,66.99
2023-05-03T12:44:58.313Z,66.63
2023-05-03T12:47:34.214Z,68.25
2023-05-03T12:50:12.711Z,67.67
2023-05-03T12:52:45.929Z,67.49
2023-05-03T12:55:19.299Z,66.66
2023-05-03T12:58:10.311Z,66.48
2023-05-03T13:01:22.061Z,66.97
2023-05-03T13:03:43.692Z,65.20
2023-05-03T13:06:19.382Z,66.44
2023-05-03T13:08:52.512Z,65.82
2023-05-03T13:11:26.509Z,66.90
2023-05-03T13:13:59.604Z,64.54
2023-05-03T13:16:33.744Z,65.03
2023-05-03T13:19:07.006Z,66.05
2023-05-03T13:21:41.162Z,66.44
2023-05-03T13:24:19.772Z,66.34
2023-05-03T13:26:53.093Z,65.80
2023-05-03T13:29:26.903Z,65.73
2023-05-03T13:32:00.155Z,66.10
2023-05-03T13:34:33.054Z,65.95
2023-05-03T13:37:07.643Z,65.89
2023-05-03T13:39:40.814Z,65.50
2023-05-03T13:42:13.697Z,66.11
2023-05-03T13:44:47.875Z,65.35
2023-05-03T13:47:20.938Z,65.77
2023-05-03T13:49:56.254Z,65.94
2023-05-03T13:52:30.301Z,63.87
2023-05-03T13:55:04.387Z,64.86
2023-05-03T13:57:37.377Z,64.20
2023-05-03T14:00:10.735Z,64.86
2023-05-03T14:02:43.634Z,65.71
2023-05-03T14:05:16.734Z,65.49
2023-05-03T14:07:51.152Z,64.93
2023-05-03T14:10:24.300Z,66.11
2023-05-03T14:12:58.241Z,66.48
2023-05-03T14:15:31.357Z,66.29
2023-05-03T14:18:05.915Z,65.90
2023-05-03T14:20:39.454Z,65.75
2023-05-03T14:23:13.908Z,67.24
2023-05-03T14:25:46.769Z,66.31
2023-05-03T14:28:20.370Z,65.53
2023-05-03T14:30:53.666Z,65.36
2023-05-03T14:33:26.663Z,66.27
2023-05-03T14:35:59.673Z,66.71
2023-05-03T14:38:33.940Z,67.54
2023-05-03T14:41:07.901Z,67.05
2023-05-03T14:43:40.897Z,67.57
2023-05-03T14:46:13.811Z,67.89
2023-05-03T14:48:46.842Z,68.02
2023-05-03T14:51:20.228Z,68.62
2023-05-03T14:53:55.427Z,67.78
2023-05-03T14:56:28.682Z,68.07
2023-05-03T14:59:01.979Z,67.99
2023-05-03T15:01:36.218Z,68.37
2023-05-03T15:04:13.589Z,68.03
2023-05-03T15:06:46.887Z,69.00
2023-05-03T15:09:21.147Z,68.85
2023-05-03T15:11:54.134Z,67.96
2023-05-03T15:14:27.210Z,67.99
2023-05-03T15:17:00.355Z,67.71
2023-05-03T15:19:33.414Z,67.26
2023-05-03T15:22:06.638Z,67.33
2023-05-03T15:24:41.498Z,67.36
2023-05-03T15:27:14.508Z,67.65
2023-05-03T15:29:47.446Z,68.19
2023-05-03T15:32:20.495Z,67.86
2023-05-03T15:34:53.632Z,68.53
2023-05-03T15:37:36.054Z,68.82
2023-05-03T15:40:14.216Z,69.78
2023-05-03T15:42:47.280Z,69.26
2023-05-03T15:45:23.481Z,69.05
2023-05-03T15:47:57.173Z,69.15
2023-05-03T15:50:31.128Z,68.18
2023-05-03T15:53:04.193Z,68.00
2023-05-03T15:55:38.832Z,68.08
2023-05-03T15:58:12.241Z,69.61
2023-05-03T16:00:45.292Z,69.55
2023-05-03T16:03:18.644Z,69.97
2023-05-03T16:05:51.628Z,70.52
2023-05-03T16:08:27.593Z,71.80
2023-05-03T16:11:02.052Z,72.34
2023-05-03T16:13:35.311Z,72.34
2023-05-03T16:16:08.516Z,72.00
2023-05-03T16:18:41.687Z,72.64
2023-05-03T16:21:19.178Z,72.56
2023-05-03T16:23:55.626Z,71.10
2023-05-03T16:26:31.885Z,71.05
2023-05-03T16:29:05.879Z,71.03
2023-05-03T16:31:38.870Z,70.97
2023-05-03T16:34:12.148Z,71.19
2023-05-03T16:36:45.641Z,71.36
2023-05-03T16:39:19.906Z,71.61
2023-05-03T16:41:54.158Z,72.32
2023-05-03T16:44:27.142Z,71.26
2023-05-03T16:47:00.474Z,72.00
2023-05-03T16:49:34.304Z,72.50
2023-05-03T16:52:10.092Z,71.53
2023-05-03T16:54:43.591Z,71.91
2023-05-03T16:57:17.930Z,72.03
2023-05-03T16:59:51.065Z,71.05
2023-05-03T17:02:27.301Z,72.01
2023-05-03T17:05:01.154Z,73.81
2023-05-03T17:07:34.405Z,76.08
2023-05-03T17:10:10.963Z,74.73
2023-05-03T17:12:48.082Z,77.43
2023-05-03T17:15:21.452Z,79.44
2023-05-03T17:18:01.330Z,78.44
2023-05-03T17:20:37.358Z,78.98
2023-05-03T17:23:12.795Z,78.58
2023-05-03T17:25:48.159Z,81.33
2023-05-03T17:28:22.500Z,78.60
2023-05-03T17:30:58.617Z,80.18
2023-05-03T17:33:31.591Z,81.44
2023-05-03T17:36:08.769Z,80.55
2023-05-03T17:38:45.640Z,78.97
2023-05-03T17:41:23.599Z,81.50
2023-05-03T17:43:58.531Z,78.68
2023-05-03T17:46:33.073Z,79.21
2023-05-03T17:49:08.282Z,78.83
2023-05-03T17:51:43.504Z,80.77
2023-05-03T17:54:22.636Z,80.40
2023-05-03T17:56:55.704Z,80.21
2023-05-03T17:59:32.330Z,81.54
2023-05-03T18:02:05.766Z,81.36
2023-05-03T18:04:39.966Z,82.79
2023-05-03T18:07:14.057Z,83.67
2023-05-03T18:09:47.033Z,84.55
2023-05-03T18:12:26.062Z,86.83
2023-05-03T18:15:00.826Z,86.03
2023-05-03T18:17:37.264Z,87.81
2023-05-03T18:20:14.395Z,88.45
2023-05-03T18:22:53.333Z,92.21
2023-05-03T18:25:26.701Z,90.25
2023-05-03T18:27:59.681Z,92.60
2023-05-03T18:30:35.194Z,89.03
2023-05-03T18:33:08.285Z,91.03
2023-05-03T18:35:41.517Z,91.23
2023-05-03T18:38:16.508Z,93.06
2023-05-03T18:40:51.799Z,96.13
2023-05-03T18:43:28.816Z,96.75
2023-05-03T18:46:05.735Z,96.89
2023-05-03T18:48:41.170Z,99.64
2023-05-03T18:51:14.577Z,100.00
2023-05-03T18:53:55.023Z,100.00
2023-05-03T18:56:30.493Z,100.00
2023-05-03T18:59:06.585Z,100.00
2023-05-03T19:01:43.050Z,99.86
2023-05-03T19:04:16.188Z,100.00
2023-05-03T19:06:52.500Z,98.07
2023-05-03T19:09:25.678Z,98.87
2023-05-03T19:12:00.767Z,99.44
2023-05-03T19:14:34.523Z,100.00
2023-05-03T19:17:12.765Z,100.00
2023-05-03T19:19:54.347Z,100.00
2023-05-03T19:22:27.581Z,95.15
2023-05-03T19:25:01.801Z,96.64
2023-05-03T19:27:36.892Z,100.00
2023-05-03T19:30:13.146Z,97.39
2023-05-03T19:32:50.414Z,98.59
2023-05-03T19:35:24.430Z,100.00
2023-05-03T19:38:06.890Z,99.77
2023-05-03T19:40:43.095Z,100.00
2023-05-03T19:43:17.392Z,97.37
2023-05-03T19:45:53.200Z,99.25
2023-05-03T19:48:30.500Z,100.00
2023-05-03T19:51:05.515Z,100.00
2023-05-03T19:53:39.150Z,94.98
2023-05-03T19:56:13.566Z,96.76
2023-05-03T19:58:46.643Z,96.62
2023-05-03T20:01:22.464Z,98.75
2023-05-03T20:03:57.468Z,98.93
2023-05-03T20:06:33.801Z,100.00
2023-05-03T20:09:06.874Z,100.00
2023-05-03T20:11:42.224Z,100.00
2023-05-03T20:14:18.033Z,100.00
2023-05-03T20:16:52.003Z,100.00
2023-05-03T20:19:28.898Z,99.64
2023-05-03T20:22:04.789Z,100.00
2023-05-03T20:27:27.462Z,100.00
2023-05-03T20:30:04.222Z,100.00
2023-05-03T20:32:41.000Z,100.00
2023-05-03T20:35:15.459Z,100.00
2023-05-03T20:37:48.419Z,100.00
2023-05-03T20:40:23.260Z,100.00
2023-05-03T20:42:56.435Z,100.00
2023-05-03T20:45:32.504Z,100.00
2023-05-03T20:48:05.747Z,100.00
2023-05-03T20:50:40.393Z,100.00
2023-05-03T20:53:13.499Z,100.00
2023-05-03T20:55:46.448Z,100.00
2023-05-03T20:58:22.361Z,100.00
2023-05-03T21:00:57.691Z,100.00
2023-05-03T21:03:31.427Z,100.00
2023-05-03T21:06:07.095Z,100.00
2023-05-03T21:08:40.228Z,100.00
2023-05-03T21:11:14.983Z,100.00
2023-05-03T21:13:49.050Z,100.00
2023-05-03T21:16:23.763Z,100.00
2023-05-03T21:18:59.656Z,100.00
2023-05-03T21:21:36.274Z,100.00
2023-05-03T21:24:14.279Z,100.00
2023-05-03T21:26:49.060Z,100.00
2023-05-03T21:29:22.194Z,100.00
2023-05-03T21:31:57.001Z,100.00
2023-05-03T21:34:33.520Z,100.00
2023-05-03T21:37:09.146Z,100.00
2023-05-03T21:39:57.773Z,100.00
2023-05-03T21:42:34.376Z,100.00
2023-05-03T21:45:10.849Z,100.00
2023-05-03T21:47:43.858Z,100.00
2023-05-03T21:50:19.376Z,100.00
2023-05-03T21:52:53.786Z,100.00
2023-05-03T21:55:29.697Z,100.00
2023-05-03T21:58:02.654Z,100.00
2023-05-03T22:00:36.456Z,100.00
2023-05-03T22:03:09.995Z,100.00
2023-05-03T22:05:47.235Z,100.00
2023-05-03T22:08:21.947Z,100.00
2023-05-03T22:10:56.320Z,100.00
2023-05-03T22:13:30.484Z,100.00
2023-05-03T22:16:06.013Z,100.00
2023-05-03T22:18:38.950Z,100.00
2023-05-03T22:21:11.981Z,100.00
2023-05-03T22:23:46.407Z,100.00
2023-05-03T22:26:19.533Z,100.00
2023-05-03T22:28:52.450Z,100.00
2023-05-03T22:31:26.947Z,100.00
2023-05-03T22:34:00.175Z,100.00
2023-05-03T22:36:33.732Z,100.00
2023-05-03T22:39:08.273Z,100.00
2023-05-03T22:41:41.401Z,100.00
2023-05-03T22:44:14.380Z,100.00
2023-05-03T22:46:48.004Z,100.00
2023-05-03T22:49:21.257Z,100.00
2023-05-03T22:51:54.189Z,100.00
2023-05-03T22:54:28.853Z,100.00
2023-05-03T22:57:02.142Z,100.00
2023-05-03T22:59:34.906Z,100.00
2023-05-03T23:02:07.618Z,100.00
2023-05-03T23:04:40.478Z,100.00
2023-05-03T23:07:13.468Z,100.00
2023-05-03T23:09:48.502Z,100.00
2023-05-03T23:12:21.497Z,100.00
2023-05-03T23:14:54.236Z,100.00
2023-05-03T23:17:29.047Z,100.00
2023-05-03T23:20:01.959Z,100.00
2023-05-03T23:22:34.900Z,100.00
2023-05-03T23:25:09.803Z,100.00
2023-05-03T23:27:43.026Z,100.00
2023-05-03T23:30:16.142Z,100.00
2023-05-03T23:32:49.795Z,100.00
2023-05-03T23:35:23.372Z,100.00
2023-05-03T23:37:56.350Z,100.00
2023-05-03T23:40:30.453Z,100.00
2023-05-03T23:43:03.187Z,100.00
2023-05-03T23:45:35.959Z,100.00
2023-05-03T23:48:09.106Z,100.00
2023-05-03T23:50:41.853Z,100.00
2023-05-03T23:53:14.551Z,100.00
2023-05-03T23:55:48.764Z,100.00
2023-05-03T23:58:21.867Z,100.00
